sensor_id;sensor_type;location;lat;lon;timestamp;P1;durP1;ratioP1;P2;durP2;ratioP2
11743;SDS011;5929;51.906;7.674;2023-05-07T00:00:55;12.73;;;9.63;;
11743;SDS011;5929;51.906;7.674;2023-05-07T00:03:25;13.60;;;10.65;;
11743;SDS011;5929;51.906;7.674;2023-05-07T00:05:52;12.90;;;10.48;;
11743;SDS011;5929;51.906;7.674;2023-05-07T00:08:19;13.38;;;9.50;;
11743;SDS011;5929;51.906;7.674;2023-05-07T00:10:46;13.07;;;9.77;;
11743;SDS011;5929;51.906;7.674;2023-05-07T00:13:13;12.98;;;9.75;;
11743;SDS011;5929;51.906;7.674;2023-05-07T00:15:40;15.90;;;10.15;;
11743;SDS011;5929;51.906;7.674;2023-05-07T00:18:07;14.20;;;9.68;;
11743;SDS011;5929;51.906;7.674;2023-05-07T00:20:35;12.63;;;9.77;;
11743;SDS011;5929;51.906;7.674;2023-05-07T00:23:02;11.85;;;9.00;;
11743;SDS011;5929;51.906;7.674;2023-05-07T00:25:29;11.27;;;8.93;;
11743;SDS011;5929;51.906;7.674;2023-05-07T00:27:56;12.73;;;9.70;;
11743;SDS011;5929;51.906;7.674;2023-05-07T00:30:27;14.52;;;9.45;;
11743;SDS011;5929;51.906;7.674;2023-05-07T00:32:54;12.25;;;8.80;;
11743;SDS011;5929;51.906;7.674;2023-05-07T00:35:21;15.40;;;8.98;;
11743;SDS011;5929;51.906;7.674;2023-05-07T00:37:50;12.88;;;9.00;;
11743;SDS011;5929;51.906;7.674;2023-05-07T00:40:18;10.05;;;8.30;;
11743;SDS011;5929;51.906;7.674;2023-05-07T00:42:44;13.18;;;9.23;;
11743;SDS011;5929;51.906;7.674;2023-05-07T00:45:12;10.82;;;8.88;;
11743;SDS011;5929;51.906;7.674;2023-05-07T00:47:39;12.77;;;9.00;;
11743;SDS011;5929;51.906;7.674;2023-05-07T00:50:06;13.32;;;8.05;;
11743;SDS011;5929;51.906;7.674;2023-05-07T00:52:38;10.48;;;8.40;;
11743;SDS011;5929;51.906;7.674;2023-05-07T00:55:08;10.93;;;8.20;;
11743;SDS011;5929;51.906;7.674;2023-05-07T00:57:36;9.85;;;8.45;;
11743;SDS011;5929;51.906;7.674;2023-05-07T01:00:04;11.77;;;8.38;;
11743;SDS011;5929;51.906;7.674;2023-05-07T01:02:33;12.43;;;8.90;;
11743;SDS011;5929;51.906;7.674;2023-05-07T01:05:01;11.32;;;7.55;;
11743;SDS011;5929;51.906;7.674;2023-05-07T01:07:29;10.95;;;8.60;;
11743;SDS011;5929;51.906;7.674;2023-05-07T01:09:56;13.07;;;8.10;;
11743;SDS011;5929;51.906;7.674;2023-05-07T01:12:25;11.23;;;8.40;;
11743;SDS011;5929;51.906;7.674;2023-05-07T01:14:52;13.32;;;8.40;;
11743;SDS011;5929;51.906;7.674;2023-05-07T01:17:19;11.50;;;8.25;;
11743;SDS011;5929;51.906;7.674;2023-05-07T01:19:46;11.82;;;8.07;;
11743;SDS011;5929;51.906;7.674;2023-05-07T01:22:14;11.15;;;8.18;;
11743;SDS011;5929;51.906;7.674;2023-05-07T01:24:44;11.10;;;8.40;;
11743;SDS011;5929;51.906;7.674;2023-05-07T01:27:11;11.38;;;8.25;;
11743;SDS011;5929;51.906;7.674;2023-05-07T01:29:38;12.52;;;8.85;;
11743;SDS011;5929;51.906;7.674;2023-05-07T01:32:05;12.90;;;8.77;;
11743;SDS011;5929;51.906;7.674;2023-05-07T01:34:33;13.00;;;9.27;;
11743;SDS011;5929;51.906;7.674;2023-05-07T01:37:02;12.18;;;9.48;;
11743;SDS011;5929;51.906;7.674;2023-05-07T01:39:29;12.25;;;9.68;;
11743;SDS011;5929;51.906;7.674;2023-05-07T01:41:58;14.68;;;9.35;;
11743;SDS011;5929;51.906;7.674;2023-05-07T01:44:25;11.77;;;9.95;;
11743;SDS011;5929;51.906;7.674;2023-05-07T01:46:53;15.52;;;11.60;;
11743;SDS011;5929;51.906;7.674;2023-05-07T01:49:20;18.33;;;11.13;;
11743;SDS011;5929;51.906;7.674;2023-05-07T01:51:47;14.25;;;11.45;;
11743;SDS011;5929;51.906;7.674;2023-05-07T01:54:15;15.80;;;12.68;;
11743;SDS011;5929;51.906;7.674;2023-05-07T01:56:42;18.38;;;13.73;;
11743;SDS011;5929;51.906;7.674;2023-05-07T01:59:13;18.23;;;13.52;;
11743;SDS011;5929;51.906;7.674;2023-05-07T02:01:40;19.42;;;14.88;;
11743;SDS011;5929;51.906;7.674;2023-05-07T02:04:07;24.15;;;16.92;;
11743;SDS011;5929;51.906;7.674;2023-05-07T02:06:34;20.63;;;14.50;;
11743;SDS011;5929;51.906;7.674;2023-05-07T02:09:01;23.08;;;16.42;;
11743;SDS011;5929;51.906;7.674;2023-05-07T02:11:27;21.60;;;17.30;;
11743;SDS011;5929;51.906;7.674;2023-05-07T02:13:54;23.88;;;17.42;;
11743;SDS011;5929;51.906;7.674;2023-05-07T02:16:22;23.38;;;17.75;;
11743;SDS011;5929;51.906;7.674;2023-05-07T02:18:49;22.30;;;18.67;;
11743;SDS011;5929;51.906;7.674;2023-05-07T02:21:16;24.10;;;18.92;;
11743;SDS011;5929;51.906;7.674;2023-05-07T02:23:43;23.02;;;17.52;;
11743;SDS011;5929;51.906;7.674;2023-05-07T02:26:10;27.30;;;19.23;;
11743;SDS011;5929;51.906;7.674;2023-05-07T02:28:37;23.73;;;18.70;;
11743;SDS011;5929;51.906;7.674;2023-05-07T02:31:04;26.50;;;18.42;;
11743;SDS011;5929;51.906;7.674;2023-05-07T02:33:32;24.83;;;19.40;;
11743;SDS011;5929;51.906;7.674;2023-05-07T02:36:05;24.83;;;19.90;;
11743;SDS011;5929;51.906;7.674;2023-05-07T02:38:32;26.05;;;19.83;;
11743;SDS011;5929;51.906;7.674;2023-05-07T02:40:59;28.40;;;19.73;;
11743;SDS011;5929;51.906;7.674;2023-05-07T02:43:26;27.25;;;19.80;;
11743;SDS011;5929;51.906;7.674;2023-05-07T02:46:00;26.63;;;20.77;;
11743;SDS011;5929;51.906;7.674;2023-05-07T02:48:27;25.80;;;19.65;;
11743;SDS011;5929;51.906;7.674;2023-05-07T02:50:56;26.33;;;21.42;;
11743;SDS011;5929;51.906;7.674;2023-05-07T02:53:23;30.13;;;21.40;;
11743;SDS011;5929;51.906;7.674;2023-05-07T02:55:51;28.13;;;21.17;;
11743;SDS011;5929;51.906;7.674;2023-05-07T02:58:18;29.33;;;21.35;;
11743;SDS011;5929;51.906;7.674;2023-05-07T03:00:45;27.90;;;21.60;;
11743;SDS011;5929;51.906;7.674;2023-05-07T03:03:12;30.15;;;20.77;;
11743;SDS011;5929;51.906;7.674;2023-05-07T03:05:39;28.25;;;21.55;;
11743;SDS011;5929;51.906;7.674;2023-05-07T03:08:08;29.48;;;21.98;;
11743;SDS011;5929;51.906;7.674;2023-05-07T03:10:35;27.73;;;22.00;;
11743;SDS011;5929;51.906;7.674;2023-05-07T03:13:03;28.17;;;21.13;;
11743;SDS011;5929;51.906;7.674;2023-05-07T03:15:30;27.35;;;22.75;;
11743;SDS011;5929;51.906;7.674;2023-05-07T03:17:57;30.95;;;22.80;;
11743;SDS011;5929;51.906;7.674;2023-05-07T03:20:23;29.73;;;22.20;;
11743;SDS011;5929;51.906;7.674;2023-05-07T03:22:50;26.20;;;21.95;;
11743;SDS011;5929;51.906;7.674;2023-05-07T03:25:19;27.15;;;21.73;;
11743;SDS011;5929;51.906;7.674;2023-05-07T03:27:48;26.40;;;23.42;;
11743;SDS011;5929;51.906;7.674;2023-05-07T03:30:15;28.17;;;22.63;;
11743;SDS011;5929;51.906;7.674;2023-05-07T03:32:41;26.52;;;21.92;;
11743;SDS011;5929;51.906;7.674;2023-05-07T03:35:08;30.10;;;22.25;;
11743;SDS011;5929;51.906;7.674;2023-05-07T03:37:35;28.30;;;22.58;;
11743;SDS011;5929;51.906;7.674;2023-05-07T03:40:04;27.83;;;22.42;;
11743;SDS011;5929;51.906;7.674;2023-05-07T03:42:34;27.17;;;22.73;;
11743;SDS011;5929;51.906;7.674;2023-05-07T03:45:01;30.92;;;24.30;;
11743;SDS011;5929;51.906;7.674;2023-05-07T03:47:27;29.55;;;23.58;;
11743;SDS011;5929;51.906;7.674;2023-05-07T03:49:54;30.33;;;22.90;;
11743;SDS011;5929;51.906;7.674;2023-05-07T03:52:21;30.85;;;23.00;;
11743;SDS011;5929;51.906;7.674;2023-05-07T03:54:51;26.02;;;21.83;;
11743;SDS011;5929;51.906;7.674;2023-05-07T03:57:18;30.88;;;23.70;;
11743;SDS011;5929;51.906;7.674;2023-05-07T03:59:54;29.08;;;22.25;;
11743;SDS011;5929;51.906;7.674;2023-05-07T04:02:21;28.70;;;22.15;;
11743;SDS011;5929;51.906;7.674;2023-05-07T04:04:48;27.75;;;22.98;;
11743;SDS011;5929;51.906;7.674;2023-05-07T04:07:15;31.25;;;23.25;;
11743;SDS011;5929;51.906;7.674;2023-05-07T04:09:41;29.70;;;24.17;;
11743;SDS011;5929;51.906;7.674;2023-05-07T04:12:08;31.02;;;23.88;;
11743;SDS011;5929;51.906;7.674;2023-05-07T04:14:35;29.90;;;24.27;;
11743;SDS011;5929;51.906;7.674;2023-05-07T04:17:03;30.38;;;23.70;;
11743;SDS011;5929;51.906;7.674;2023-05-07T04:19:32;30.75;;;23.90;;
11743;SDS011;5929;51.906;7.674;2023-05-07T04:21:59;27.38;;;23.17;;
11743;SDS011;5929;51.906;7.674;2023-05-07T04:24:26;28.25;;;23.30;;
11743;SDS011;5929;51.906;7.674;2023-05-07T04:26:53;28.45;;;23.60;;
11743;SDS011;5929;51.906;7.674;2023-05-07T04:29:20;28.25;;;22.58;;
11743;SDS011;5929;51.906;7.674;2023-05-07T04:31:46;31.90;;;23.58;;
11743;SDS011;5929;51.906;7.674;2023-05-07T04:34:17;31.58;;;22.58;;
11743;SDS011;5929;51.906;7.674;2023-05-07T04:36:46;30.10;;;23.88;;
11743;SDS011;5929;51.906;7.674;2023-05-07T04:39:13;30.00;;;23.17;;
11743;SDS011;5929;51.906;7.674;2023-05-07T04:41:40;29.65;;;22.90;;
11743;SDS011;5929;51.906;7.674;2023-05-07T04:44:06;28.75;;;23.77;;
11743;SDS011;5929;51.906;7.674;2023-05-07T04:46:36;30.17;;;23.05;;
11743;SDS011;5929;51.906;7.674;2023-05-07T04:49:03;28.58;;;22.25;;
11743;SDS011;5929;51.906;7.674;2023-05-07T04:51:32;24.40;;;21.65;;
11743;SDS011;5929;51.906;7.674;2023-05-07T04:53:58;28.17;;;22.23;;
11743;SDS011;5929;51.906;7.674;2023-05-07T04:56:27;26.42;;;21.92;;
11743;SDS011;5929;51.906;7.674;2023-05-07T04:58:54;31.33;;;23.42;;
11743;SDS011;5929;51.906;7.674;2023-05-07T05:01:21;33.05;;;22.02;;
11743;SDS011;5929;51.906;7.674;2023-05-07T05:03:50;27.58;;;22.40;;
11743;SDS011;5929;51.906;7.674;2023-05-07T05:06:17;27.98;;;21.95;;
11743;SDS011;5929;51.906;7.674;2023-05-07T05:08:45;27.65;;;21.95;;
11743;SDS011;5929;51.906;7.674;2023-05-07T05:11:12;25.95;;;22.00;;
11743;SDS011;5929;51.906;7.674;2023-05-07T05:13:40;31.92;;;22.60;;
11743;SDS011;5929;51.906;7.674;2023-05-07T05:16:06;28.35;;;21.90;;
11743;SDS011;5929;51.906;7.674;2023-05-07T05:18:33;26.25;;;21.65;;
11743;SDS011;5929;51.906;7.674;2023-05-07T05:21:00;29.40;;;22.08;;
11743;SDS011;5929;51.906;7.674;2023-05-07T05:23:27;29.08;;;22.73;;
11743;SDS011;5929;51.906;7.674;2023-05-07T05:25:56;26.30;;;22.05;;
11743;SDS011;5929;51.906;7.674;2023-05-07T05:28:23;27.15;;;22.25;;
11743;SDS011;5929;51.906;7.674;2023-05-07T05:30:52;28.63;;;22.83;;
11743;SDS011;5929;51.906;7.674;2023-05-07T05:33:19;27.33;;;21.60;;
11743;SDS011;5929;51.906;7.674;2023-05-07T05:35:46;27.30;;;20.70;;
11743;SDS011;5929;51.906;7.674;2023-05-07T05:38:13;30.95;;;22.00;;
11743;SDS011;5929;51.906;7.674;2023-05-07T05:40:40;25.90;;;21.90;;
11743;SDS011;5929;51.906;7.674;2023-05-07T05:43:08;28.77;;;21.45;;
11743;SDS011;5929;51.906;7.674;2023-05-07T05:45:35;28.58;;;20.73;;
11743;SDS011;5929;51.906;7.674;2023-05-07T05:48:02;23.27;;;20.77;;
11743;SDS011;5929;51.906;7.674;2023-05-07T05:50:29;27.30;;;22.40;;
11743;SDS011;5929;51.906;7.674;2023-05-07T05:52:55;28.60;;;21.48;;
11743;SDS011;5929;51.906;7.674;2023-05-07T05:55:22;28.50;;;20.42;;
11743;SDS011;5929;51.906;7.674;2023-05-07T05:57:49;26.13;;;20.95;;
11743;SDS011;5929;51.906;7.674;2023-05-07T06:00:18;26.77;;;21.63;;
11743;SDS011;5929;51.906;7.674;2023-05-07T06:02:47;26.45;;;21.48;;
11743;SDS011;5929;51.906;7.674;2023-05-07T06:05:14;28.33;;;21.23;;
11743;SDS011;5929;51.906;7.674;2023-05-07T06:07:41;24.48;;;20.80;;
11743;SDS011;5929;51.906;7.674;2023-05-07T06:10:08;26.08;;;20.92;;
11743;SDS011;5929;51.906;7.674;2023-05-07T06:12:35;27.55;;;22.20;;
11743;SDS011;5929;51.906;7.674;2023-05-07T06:15:02;26.42;;;21.50;;
11743;SDS011;5929;51.906;7.674;2023-05-07T06:17:32;31.75;;;22.38;;
11743;SDS011;5929;51.906;7.674;2023-05-07T06:19:59;26.80;;;21.50;;
11743;SDS011;5929;51.906;7.674;2023-05-07T06:22:26;32.63;;;22.30;;
11743;SDS011;5929;51.906;7.674;2023-05-07T06:24:53;28.52;;;21.90;;
11743;SDS011;5929;51.906;7.674;2023-05-07T06:27:20;27.70;;;21.40;;
11743;SDS011;5929;51.906;7.674;2023-05-07T06:29:47;26.77;;;22.00;;
11743;SDS011;5929;51.906;7.674;2023-05-07T06:32:14;25.38;;;21.13;;
11743;SDS011;5929;51.906;7.674;2023-05-07T06:34:43;25.33;;;20.80;;
11743;SDS011;5929;51.906;7.674;2023-05-07T06:37:10;29.75;;;22.35;;
11743;SDS011;5929;51.906;7.674;2023-05-07T06:39:37;25.42;;;22.05;;
11743;SDS011;5929;51.906;7.674;2023-05-07T06:42:04;29.48;;;21.23;;
11743;SDS011;5929;51.906;7.674;2023-05-07T06:44:30;27.63;;;21.27;;
11743;SDS011;5929;51.906;7.674;2023-05-07T06:46:57;27.63;;;21.80;;
11743;SDS011;5929;51.906;7.674;2023-05-07T06:49:24;28.75;;;21.08;;
11743;SDS011;5929;51.906;7.674;2023-05-07T06:51:53;26.58;;;20.98;;
11743;SDS011;5929;51.906;7.674;2023-05-07T06:54:20;27.55;;;21.00;;
11743;SDS011;5929;51.906;7.674;2023-05-07T06:56:47;24.90;;;20.58;;
11743;SDS011;5929;51.906;7.674;2023-05-07T06:59:14;26.20;;;20.73;;
11743;SDS011;5929;51.906;7.674;2023-05-07T07:01:41;26.50;;;20.70;;
11743;SDS011;5929;51.906;7.674;2023-05-07T07:04:08;27.40;;;21.05;;
11743;SDS011;5929;51.906;7.674;2023-05-07T07:06:35;26.23;;;20.98;;
11743;SDS011;5929;51.906;7.674;2023-05-07T07:09:03;26.98;;;21.38;;
11743;SDS011;5929;51.906;7.674;2023-05-07T07:11:30;29.63;;;22.65;;
11743;SDS011;5929;51.906;7.674;2023-05-07T07:13:57;25.15;;;21.27;;
11743;SDS011;5929;51.906;7.674;2023-05-07T07:16:24;25.73;;;20.45;;
11743;SDS011;5929;51.906;7.674;2023-05-07T07:18:50;28.88;;;21.80;;
11743;SDS011;5929;51.906;7.674;2023-05-07T07:21:17;31.70;;;22.35;;
11743;SDS011;5929;51.906;7.674;2023-05-07T07:23:45;28.63;;;21.23;;
11743;SDS011;5929;51.906;7.674;2023-05-07T07:26:13;27.20;;;21.45;;
11743;SDS011;5929;51.906;7.674;2023-05-07T07:28:43;29.38;;;22.95;;
11743;SDS011;5929;51.906;7.674;2023-05-07T07:31:09;27.05;;;21.05;;
11743;SDS011;5929;51.906;7.674;2023-05-07T07:33:36;28.33;;;21.33;;
11743;SDS011;5929;51.906;7.674;2023-05-07T07:36:04;27.23;;;21.73;;
11743;SDS011;5929;51.906;7.674;2023-05-07T07:38:32;25.60;;;21.70;;
11743;SDS011;5929;51.906;7.674;2023-05-07T07:40:59;27.58;;;21.23;;
11743;SDS011;5929;51.906;7.674;2023-05-07T07:43:27;26.95;;;21.80;;
11743;SDS011;5929;51.906;7.674;2023-05-07T07:45:54;25.42;;;21.77;;
11743;SDS011;5929;51.906;7.674;2023-05-07T07:48:21;27.17;;;21.63;;
11743;SDS011;5929;51.906;7.674;2023-05-07T07:50:48;26.50;;;21.55;;
11743;SDS011;5929;51.906;7.674;2023-05-07T07:53:16;26.80;;;21.73;;
11743;SDS011;5929;51.906;7.674;2023-05-07T07:55:43;30.60;;;23.10;;
11743;SDS011;5929;51.906;7.674;2023-05-07T07:58:10;28.70;;;22.00;;
11743;SDS011;5929;51.906;7.674;2023-05-07T08:00:38;25.38;;;20.58;;
11743;SDS011;5929;51.906;7.674;2023-05-07T08:03:05;29.38;;;20.75;;
11743;SDS011;5929;51.906;7.674;2023-05-07T08:05:32;25.98;;;21.30;;
11743;SDS011;5929;51.906;7.674;2023-05-07T08:07:59;24.60;;;21.77;;
11743;SDS011;5929;51.906;7.674;2023-05-07T08:10:25;27.30;;;21.23;;
11743;SDS011;5929;51.906;7.674;2023-05-07T08:12:53;29.02;;;21.92;;
11743;SDS011;5929;51.906;7.674;2023-05-07T08:15:19;25.70;;;21.50;;
11743;SDS011;5929;51.906;7.674;2023-05-07T08:17:48;28.25;;;21.23;;
11743;SDS011;5929;51.906;7.674;2023-05-07T08:20:14;25.38;;;21.02;;
11743;SDS011;5929;51.906;7.674;2023-05-07T08:22:41;25.30;;;20.40;;
11743;SDS011;5929;51.906;7.674;2023-05-07T08:25:08;25.17;;;19.55;;
11743;SDS011;5929;51.906;7.674;2023-05-07T08:27:35;27.92;;;20.50;;
11743;SDS011;5929;51.906;7.674;2023-05-07T08:30:02;27.98;;;20.27;;
11743;SDS011;5929;51.906;7.674;2023-05-07T08:32:31;24.48;;;18.73;;
11743;SDS011;5929;51.906;7.674;2023-05-07T08:34:59;26.50;;;19.38;;
11743;SDS011;5929;51.906;7.674;2023-05-07T08:37:28;24.38;;;20.17;;
11743;SDS011;5929;51.906;7.674;2023-05-07T08:39:55;24.85;;;20.70;;
11743;SDS011;5929;51.906;7.674;2023-05-07T08:42:22;25.33;;;20.33;;
11743;SDS011;5929;51.906;7.674;2023-05-07T08:44:51;23.00;;;19.05;;
11743;SDS011;5929;51.906;7.674;2023-05-07T08:47:20;22.92;;;18.77;;
11743;SDS011;5929;51.906;7.674;2023-05-07T08:49:50;23.73;;;19.45;;
11743;SDS011;5929;51.906;7.674;2023-05-07T08:52:19;22.08;;;18.45;;
11743;SDS011;5929;51.906;7.674;2023-05-07T08:54:46;26.13;;;20.20;;
11743;SDS011;5929;51.906;7.674;2023-05-07T08:57:13;23.67;;;20.00;;
11743;SDS011;5929;51.906;7.674;2023-05-07T08:59:40;22.38;;;18.60;;
11743;SDS011;5929;51.906;7.674;2023-05-07T09:02:07;22.45;;;17.92;;
11743;SDS011;5929;51.906;7.674;2023-05-07T09:04:38;21.63;;;17.25;;
11743;SDS011;5929;51.906;7.674;2023-05-07T09:07:05;23.33;;;17.70;;
11743;SDS011;5929;51.906;7.674;2023-05-07T09:09:33;21.92;;;18.23;;
11743;SDS011;5929;51.906;7.674;2023-05-07T09:12:00;23.17;;;18.27;;
11743;SDS011;5929;51.906;7.674;2023-05-07T09:14:28;24.65;;;19.30;;
11743;SDS011;5929;51.906;7.674;2023-05-07T09:16:56;22.65;;;18.13;;
11743;SDS011;5929;51.906;7.674;2023-05-07T09:19:23;21.55;;;17.70;;
11743;SDS011;5929;51.906;7.674;2023-05-07T09:21:50;20.05;;;16.80;;
11743;SDS011;5929;51.906;7.674;2023-05-07T09:24:24;21.67;;;17.15;;
11743;SDS011;5929;51.906;7.674;2023-05-07T09:26:55;24.25;;;17.73;;
11743;SDS011;5929;51.906;7.674;2023-05-07T09:29:24;22.38;;;17.00;;
11743;SDS011;5929;51.906;7.674;2023-05-07T09:31:56;21.52;;;17.35;;
11743;SDS011;5929;51.906;7.674;2023-05-07T09:34:22;22.65;;;17.25;;
11743;SDS011;5929;51.906;7.674;2023-05-07T09:36:49;19.80;;;16.30;;
11743;SDS011;5929;51.906;7.674;2023-05-07T09:39:16;19.73;;;16.85;;
11743;SDS011;5929;51.906;7.674;2023-05-07T09:41:43;20.35;;;16.75;;
11743;SDS011;5929;51.906;7.674;2023-05-07T09:44:12;21.65;;;16.85;;
11743;SDS011;5929;51.906;7.674;2023-05-07T09:46:42;19.40;;;16.48;;
11743;SDS011;5929;51.906;7.674;2023-05-07T09:49:11;21.23;;;14.95;;
11743;SDS011;5929;51.906;7.674;2023-05-07T09:51:43;19.80;;;17.02;;
11743;SDS011;5929;51.906;7.674;2023-05-07T09:54:14;21.50;;;16.88;;
11743;SDS011;5929;51.906;7.674;2023-05-07T09:56:42;20.55;;;17.27;;
11743;SDS011;5929;51.906;7.674;2023-05-07T09:59:10;20.92;;;17.38;;
11743;SDS011;5929;51.906;7.674;2023-05-07T10:01:39;18.48;;;15.60;;
11743;SDS011;5929;51.906;7.674;2023-05-07T10:04:07;20.02;;;16.20;;
11743;SDS011;5929;51.906;7.674;2023-05-07T10:06:34;19.02;;;15.63;;
11743;SDS011;5929;51.906;7.674;2023-05-07T10:09:02;21.45;;;16.75;;
11743;SDS011;5929;51.906;7.674;2023-05-07T10:11:31;18.15;;;14.70;;
11743;SDS011;5929;51.906;7.674;2023-05-07T10:13:58;18.08;;;15.15;;
11743;SDS011;5929;51.906;7.674;2023-05-07T10:16:28;19.13;;;16.10;;
11743;SDS011;5929;51.906;7.674;2023-05-07T10:18:57;20.05;;;15.95;;
11743;SDS011;5929;51.906;7.674;2023-05-07T10:21:24;18.73;;;14.98;;
11743;SDS011;5929;51.906;7.674;2023-05-07T10:23:56;19.02;;;15.57;;
11743;SDS011;5929;51.906;7.674;2023-05-07T10:26:25;18.05;;;15.27;;
11743;SDS011;5929;51.906;7.674;2023-05-07T10:28:56;17.13;;;14.80;;
11743;SDS011;5929;51.906;7.674;2023-05-07T10:31:39;17.98;;;13.75;;
11743;SDS011;5929;51.906;7.674;2023-05-07T10:34:20;17.58;;;13.95;;
11743;SDS011;5929;51.906;7.674;2023-05-07T10:36:50;16.30;;;13.80;;
11743;SDS011;5929;51.906;7.674;2023-05-07T10:39:19;19.77;;;14.23;;
11743;SDS011;5929;51.906;7.674;2023-05-07T10:41:47;16.17;;;13.45;;
11743;SDS011;5929;51.906;7.674;2023-05-07T10:44:24;14.85;;;12.05;;
11743;SDS011;5929;51.906;7.674;2023-05-07T10:47:05;15.98;;;13.48;;
11743;SDS011;5929;51.906;7.674;2023-05-07T10:49:34;13.88;;;11.95;;
11743;SDS011;5929;51.906;7.674;2023-05-07T10:52:11;13.90;;;12.30;;
11743;SDS011;5929;51.906;7.674;2023-05-07T10:54:39;16.85;;;12.20;;
11743;SDS011;5929;51.906;7.674;2023-05-07T11:00:04;15.20;;;12.43;;
11743;SDS011;5929;51.906;7.674;2023-05-07T11:03:10;16.80;;;13.02;;
11743;SDS011;5929;51.906;7.674;2023-05-07T11:05:37;14.73;;;12.55;;
11743;SDS011;5929;51.906;7.674;2023-05-07T11:08:07;15.98;;;13.05;;
11743;SDS011;5929;51.906;7.674;2023-05-07T11:16:17;14.65;;;11.05;;
11743;SDS011;5929;51.906;7.674;2023-05-07T11:18:46;13.45;;;10.65;;
11743;SDS011;5929;51.906;7.674;2023-05-07T11:21:16;14.43;;;10.50;;
11743;SDS011;5929;51.906;7.674;2023-05-07T11:23:58;12.70;;;10.02;;
11743;SDS011;5929;51.906;7.674;2023-05-07T11:26:27;10.82;;;9.25;;
11743;SDS011;5929;51.906;7.674;2023-05-07T11:28:55;12.05;;;10.13;;
11743;SDS011;5929;51.906;7.674;2023-05-07T11:31:30;12.27;;;9.07;;
11743;SDS011;5929;51.906;7.674;2023-05-07T11:33:57;13.05;;;9.93;;
11743;SDS011;5929;51.906;7.674;2023-05-07T11:36:24;12.63;;;10.80;;
11743;SDS011;5929;51.906;7.674;2023-05-07T11:38:52;11.82;;;10.30;;
11743;SDS011;5929;51.906;7.674;2023-05-07T11:41:19;12.02;;;9.65;;
11743;SDS011;5929;51.906;7.674;2023-05-07T11:43:53;11.07;;;8.40;;
11743;SDS011;5929;51.906;7.674;2023-05-07T11:46:24;11.63;;;9.55;;
11743;SDS011;5929;51.906;7.674;2023-05-07T11:48:52;11.70;;;8.20;;
11743;SDS011;5929;51.906;7.674;2023-05-07T11:51:20;11.85;;;9.35;;
11743;SDS011;5929;51.906;7.674;2023-05-07T11:53:47;11.32;;;8.90;;
11743;SDS011;5929;51.906;7.674;2023-05-07T11:56:15;10.70;;;9.30;;
11743;SDS011;5929;51.906;7.674;2023-05-07T11:58:44;11.65;;;9.07;;
11743;SDS011;5929;51.906;7.674;2023-05-07T12:01:12;9.73;;;8.57;;
11743;SDS011;5929;51.906;7.674;2023-05-07T12:03:42;9.60;;;7.88;;
11743;SDS011;5929;51.906;7.674;2023-05-07T12:06:10;10.05;;;7.72;;
11743;SDS011;5929;51.906;7.674;2023-05-07T12:08:38;9.60;;;8.50;;
11743;SDS011;5929;51.906;7.674;2023-05-07T12:11:06;9.38;;;7.95;;
11743;SDS011;5929;51.906;7.674;2023-05-07T12:13:34;10.15;;;7.60;;
11743;SDS011;5929;51.906;7.674;2023-05-07T12:16:01;14.95;;;8.82;;
11743;SDS011;5929;51.906;7.674;2023-05-07T12:18:30;8.68;;;7.32;;
11743;SDS011;5929;51.906;7.674;2023-05-07T12:20:58;9.80;;;7.65;;
11743;SDS011;5929;51.906;7.674;2023-05-07T12:23:25;10.40;;;8.18;;
11743;SDS011;5929;51.906;7.674;2023-05-07T12:25:52;10.10;;;7.63;;
11743;SDS011;5929;51.906;7.674;2023-05-07T12:28:19;9.75;;;7.63;;
11743;SDS011;5929;51.906;7.674;2023-05-07T12:30:47;9.55;;;7.75;;
11743;SDS011;5929;51.906;7.674;2023-05-07T12:33:16;9.68;;;8.50;;
11743;SDS011;5929;51.906;7.674;2023-05-07T12:35:44;10.73;;;8.05;;
11743;SDS011;5929;51.906;7.674;2023-05-07T12:38:13;10.60;;;8.13;;
11743;SDS011;5929;51.906;7.674;2023-05-07T12:40:42;11.55;;;8.45;;
11743;SDS011;5929;51.906;7.674;2023-05-07T12:43:14;9.93;;;8.02;;
11743;SDS011;5929;51.906;7.674;2023-05-07T12:45:42;10.88;;;8.30;;
11743;SDS011;5929;51.906;7.674;2023-05-07T12:48:10;9.32;;;7.97;;
11743;SDS011;5929;51.906;7.674;2023-05-07T12:50:38;11.05;;;7.10;;
11743;SDS011;5929;51.906;7.674;2023-05-07T12:53:05;11.10;;;7.43;;
11743;SDS011;5929;51.906;7.674;2023-05-07T12:55:39;10.40;;;7.95;;
11743;SDS011;5929;51.906;7.674;2023-05-07T12:58:07;10.98;;;7.20;;
11743;SDS011;5929;51.906;7.674;2023-05-07T13:00:35;9.30;;;7.13;;
11743;SDS011;5929;51.906;7.674;2023-05-07T13:03:03;9.00;;;7.03;;
11743;SDS011;5929;51.906;7.674;2023-05-07T13:05:30;10.73;;;8.15;;
11743;SDS011;5929;51.906;7.674;2023-05-07T13:07:58;10.00;;;7.80;;
11743;SDS011;5929;51.906;7.674;2023-05-07T13:10:25;9.50;;;8.13;;
11743;SDS011;5929;51.906;7.674;2023-05-07T13:12:54;9.77;;;7.97;;
11743;SDS011;5929;51.906;7.674;2023-05-07T13:15:21;10.02;;;7.97;;
11743;SDS011;5929;51.906;7.674;2023-05-07T13:17:48;10.90;;;7.55;;
11743;SDS011;5929;51.906;7.674;2023-05-07T13:20:15;10.32;;;7.50;;
11743;SDS011;5929;51.906;7.674;2023-05-07T13:22:42;9.80;;;8.18;;
11743;SDS011;5929;51.906;7.674;2023-05-07T13:25:11;10.07;;;8.30;;
11743;SDS011;5929;51.906;7.674;2023-05-07T13:27:38;9.68;;;8.40;;
11743;SDS011;5929;51.906;7.674;2023-05-07T13:30:06;13.20;;;8.98;;
11743;SDS011;5929;51.906;7.674;2023-05-07T13:32:33;8.82;;;7.00;;
11743;SDS011;5929;51.906;7.674;2023-05-07T13:35:01;10.10;;;8.05;;
11743;SDS011;5929;51.906;7.674;2023-05-07T13:37:28;10.18;;;7.72;;
11743;SDS011;5929;51.906;7.674;2023-05-07T13:39:55;10.70;;;7.97;;
11743;SDS011;5929;51.906;7.674;2023-05-07T13:42:21;9.25;;;7.65;;
11743;SDS011;5929;51.906;7.674;2023-05-07T13:44:48;10.27;;;9.18;;
11743;SDS011;5929;51.906;7.674;2023-05-07T13:47:17;11.65;;;8.20;;
11743;SDS011;5929;51.906;7.674;2023-05-07T13:49:44;11.63;;;8.80;;
11743;SDS011;5929;51.906;7.674;2023-05-07T13:52:10;12.32;;;9.40;;
11743;SDS011;5929;51.906;7.674;2023-05-07T13:54:37;9.52;;;8.00;;
11743;SDS011;5929;51.906;7.674;2023-05-07T13:57:04;11.00;;;7.82;;
11743;SDS011;5929;51.906;7.674;2023-05-07T13:59:31;10.38;;;7.70;;
11743;SDS011;5929;51.906;7.674;2023-05-07T14:01:59;10.02;;;7.53;;
11743;SDS011;5929;51.906;7.674;2023-05-07T14:04:27;9.85;;;7.45;;
11743;SDS011;5929;51.906;7.674;2023-05-07T14:06:54;11.07;;;8.60;;
11743;SDS011;5929;51.906;7.674;2023-05-07T14:09:21;11.65;;;7.50;;
11743;SDS011;5929;51.906;7.674;2023-05-07T14:11:48;9.80;;;8.00;;
11743;SDS011;5929;51.906;7.674;2023-05-07T14:14:18;11.27;;;8.25;;
11743;SDS011;5929;51.906;7.674;2023-05-07T14:16:45;11.05;;;7.78;;
11743;SDS011;5929;51.906;7.674;2023-05-07T14:19:12;10.52;;;8.10;;
11743;SDS011;5929;51.906;7.674;2023-05-07T14:21:40;9.38;;;7.20;;
11743;SDS011;5929;51.906;7.674;2023-05-07T14:24:07;10.18;;;7.57;;
11743;SDS011;5929;51.906;7.674;2023-05-07T14:26:34;9.23;;;7.18;;
11743;SDS011;5929;51.906;7.674;2023-05-07T14:29:01;10.27;;;6.82;;
11743;SDS011;5929;51.906;7.674;2023-05-07T14:31:28;10.00;;;7.25;;
11743;SDS011;5929;51.906;7.674;2023-05-07T14:33:55;10.35;;;7.25;;
11743;SDS011;5929;51.906;7.674;2023-05-07T14:36:23;10.93;;;7.53;;
11743;SDS011;5929;51.906;7.674;2023-05-07T14:38:52;8.85;;;7.03;;
11743;SDS011;5929;51.906;7.674;2023-05-07T14:41:22;10.20;;;7.07;;
11743;SDS011;5929;51.906;7.674;2023-05-07T14:43:49;10.63;;;6.88;;
11743;SDS011;5929;51.906;7.674;2023-05-07T14:46:16;10.27;;;6.82;;
11743;SDS011;5929;51.906;7.674;2023-05-07T14:48:46;9.60;;;6.57;;
11743;SDS011;5929;51.906;7.674;2023-05-07T14:51:15;9.77;;;7.18;;
11743;SDS011;5929;51.906;7.674;2023-05-07T14:53:41;9.85;;;6.70;;